createdAt,value
2018-05-29T00:00:59.138Z,50.55
2018-05-29T00:03:26.529Z,50.75
2018-05-29T00:05:53.970Z,51.91
2018-05-29T00:08:21.361Z,51.88
2018-05-29T00:10:48.735Z,51.24
2018-05-29T00:13:16.120Z,51.27
2018-05-29T00:15:43.498Z,51.40
2018-05-29T00:18:10.881Z,52.17
2018-05-29T00:20:38.271Z,51.99
2018-05-29T00:23:05.661Z,52.19
2018-05-29T00:25:33.046Z,51.13
2018-05-29T00:28:00.434Z,51.51
2018-05-29T00:30:27.834Z,51.38
2018-05-29T00:32:55.215Z,51.72
2018-05-29T00:35:22.604Z,51.86
2018-05-29T00:37:49.987Z,52.33
2018-05-29T00:40:17.367Z,51.83
2018-05-29T00:42:44.755Z,52.57
2018-05-29T00:45:12.144Z,51.97
2018-05-29T00:47:39.573Z,52.62
2018-05-29T00:50:06.974Z,52.58
2018-05-29T00:52:34.383Z,52.16
2018-05-29T00:55:14.050Z,52.65
2018-05-29T00:57:41.498Z,52.77
2018-05-29T01:00:08.895Z,53.01
2018-05-29T01:02:36.291Z,53.06
2018-05-29T01:05:03.665Z,52.83
2018-05-29T01:07:31.057Z,52.54
2018-05-29T01:09:58.452Z,53.53
2018-05-29T01:12:25.814Z,53.45
2018-05-29T01:14:53.199Z,52.62
2018-05-29T01:17:20.588Z,53.24
2018-05-29T01:19:47.967Z,53.07
2018-05-29T01:22:15.355Z,53.16
2018-05-29T01:24:42.735Z,53.10
2018-05-29T01:27:10.114Z,53.33
2018-05-29T01:29:37.496Z,53.26
2018-05-29T01:32:04.883Z,53.56
2018-05-29T01:34:32.263Z,53.48
2018-05-29T01:36:59.720Z,53.30
2018-05-29T01:39:27.122Z,54.04
2018-05-29T01:41:54.537Z,54.23
2018-05-29T01:44:21.914Z,54.33
2018-05-29T01:46:49.570Z,54.13
2018-05-29T01:49:16.949Z,54.57
2018-05-29T01:51:44.435Z,53.71
2018-05-29T01:54:11.807Z,53.46
2018-05-29T01:56:39.345Z,54.27
2018-05-29T01:59:06.946Z,53.99
2018-05-29T02:01:34.509Z,54.50
2018-05-29T02:04:01.953Z,54.16
2018-05-29T02:06:29.359Z,54.94
2018-05-29T02:08:56.723Z,54.32
2018-05-29T02:11:24.685Z,54.67
2018-05-29T02:13:52.072Z,54.30
2018-05-29T02:16:19.439Z,54.41
2018-05-29T02:18:46.818Z,54.01
2018-05-29T02:21:14.195Z,53.88
2018-05-29T02:23:41.589Z,54.46
2018-05-29T02:26:08.984Z,54.75
2018-05-29T02:28:36.358Z,55.34
2018-05-29T02:31:03.748Z,55.77
2018-05-29T02:33:31.143Z,54.81
2018-05-29T02:35:58.534Z,55.19
2018-05-29T02:38:25.923Z,55.82
2018-05-29T02:40:53.373Z,56.12
2018-05-29T02:43:20.782Z,56.24
2018-05-29T02:45:48.159Z,56.09
2018-05-29T02:48:15.554Z,56.06
2018-05-29T02:50:42.939Z,56.16
2018-05-29T02:53:10.326Z,56.52
2018-05-29T02:55:37.719Z,56.22
2018-05-29T02:58:05.119Z,56.14
2018-05-29T03:00:32.494Z,57.64
2018-05-29T03:02:59.888Z,58.13
2018-05-29T03:05:27.270Z,57.49
2018-05-29T03:07:55.007Z,58.00
2018-05-29T03:10:22.367Z,57.73
2018-05-29T03:12:49.766Z,57.93
2018-05-29T03:15:17.146Z,58.07
2018-05-29T03:17:44.555Z,58.03
2018-05-29T03:20:11.943Z,58.07
2018-05-29T03:22:40.144Z,57.72
2018-05-29T03:25:07.535Z,58.12
2018-05-29T03:27:34.927Z,58.59
2018-05-29T03:30:02.318Z,58.31
2018-05-29T03:32:29.706Z,58.96
2018-05-29T03:34:57.089Z,58.88
2018-05-29T03:37:25.085Z,59.35
2018-05-29T03:39:52.488Z,62.11
2018-05-29T03:42:19.866Z,60.33
2018-05-29T03:44:47.238Z,59.34
2018-05-29T03:47:14.627Z,59.57
2018-05-29T03:49:42.010Z,59.01
2018-05-29T03:52:09.755Z,58.85
2018-05-29T03:54:37.187Z,59.89
2018-05-29T03:57:04.571Z,59.59
2018-05-29T03:59:31.967Z,59.68
2018-05-29T04:01:59.351Z,58.85
2018-05-29T04:04:26.897Z,58.64
2018-05-29T04:06:55.302Z,58.91
2018-05-29T04:09:22.719Z,58.96
2018-05-29T04:11:50.082Z,58.58
2018-05-29T04:14:17.523Z,58.00
2018-05-29T04:16:44.911Z,57.82
2018-05-29T04:19:12.295Z,58.87
2018-05-29T04:21:39.688Z,59.83
2018-05-29T04:24:07.075Z,59.60
2018-05-29T04:26:34.461Z,62.89
2018-05-29T04:29:01.863Z,59.90
2018-05-29T04:31:30.199Z,59.18
2018-05-29T04:33:57.578Z,60.02
2018-05-29T04:36:25.470Z,59.56
2018-05-29T04:38:52.854Z,58.40
2018-05-29T04:41:20.232Z,58.93
2018-05-29T04:43:47.626Z,59.26
2018-05-29T04:46:15.020Z,58.24
2018-05-29T04:48:42.417Z,57.66
2018-05-29T04:51:09.800Z,58.68
2018-05-29T04:53:37.258Z,57.94
2018-05-29T04:56:04.629Z,57.71
2018-05-29T04:58:32.031Z,57.74
2018-05-29T05:00:59.416Z,57.53
2018-05-29T05:03:26.802Z,57.89
2018-05-29T05:05:54.243Z,58.67
2018-05-29T05:08:21.643Z,59.38
2018-05-29T05:10:49.036Z,59.03
2018-05-29T05:13:16.444Z,57.44
2018-05-29T05:15:43.807Z,57.08
2018-05-29T05:18:11.221Z,56.85
2018-05-29T05:20:38.599Z,56.88
2018-05-29T05:23:05.987Z,56.76
2018-05-29T05:25:33.402Z,56.26
2018-05-29T05:28:00.787Z,56.02
2018-05-29T05:30:28.182Z,56.22
2018-05-29T05:32:55.659Z,57.09
2018-05-29T05:35:23.211Z,57.38
2018-05-29T05:37:50.587Z,57.71
2018-05-29T05:40:17.983Z,58.09
2018-05-29T05:42:45.371Z,57.72
2018-05-29T05:45:12.760Z,58.16
2018-05-29T05:47:40.536Z,58.56
2018-05-29T05:50:07.927Z,59.20
2018-05-29T05:52:35.394Z,59.64
2018-05-29T05:55:02.781Z,59.77
2018-05-29T05:57:30.166Z,59.44
2018-05-29T05:59:57.563Z,59.76
2018-05-29T06:02:25.857Z,60.57
2018-05-29T06:04:53.244Z,59.99
2018-05-29T06:07:20.623Z,59.86
2018-05-29T06:09:48.013Z,60.17
2018-05-29T06:12:15.399Z,59.84
2018-05-29T06:14:42.802Z,60.26
2018-05-29T06:17:10.204Z,60.33
2018-05-29T06:19:37.592Z,59.88
2018-05-29T06:22:04.972Z,59.50
2018-05-29T06:24:32.371Z,59.48
2018-05-29T06:26:59.755Z,58.40
2018-05-29T06:29:27.145Z,58.42
2018-05-29T06:31:54.522Z,57.68
2018-05-29T06:34:21.926Z,58.05
2018-05-29T06:36:49.299Z,58.39
2018-05-29T06:39:16.699Z,58.03
2018-05-29T06:41:44.331Z,56.78
2018-05-29T06:44:11.943Z,56.45
2018-05-29T06:46:39.576Z,56.81
2018-05-29T06:49:06.968Z,56.43
2018-05-29T06:51:34.351Z,56.60
2018-05-29T06:54:01.755Z,57.71
2018-05-29T06:56:29.135Z,58.08
2018-05-29T06:58:56.527Z,57.00
2018-05-29T07:01:23.916Z,57.89
2018-05-29T07:03:51.303Z,57.72
2018-05-29T07:06:18.691Z,57.73
2018-05-29T07:08:46.171Z,56.91
2018-05-29T07:11:13.543Z,56.16
2018-05-29T07:13:40.931Z,56.46
2018-05-29T07:16:08.318Z,56.64
2018-05-29T07:18:35.709Z,57.16
2018-05-29T07:21:03.097Z,57.40
2018-05-29T07:23:30.487Z,56.37
2018-05-29T07:25:58.463Z,56.54
2018-05-29T07:28:26.383Z,56.65
2018-05-29T07:30:53.772Z,56.92
2018-05-29T07:33:21.159Z,55.55
2018-05-29T07:35:48.548Z,55.24
2018-05-29T07:38:15.931Z,56.05
2018-05-29T07:40:43.327Z,56.28
2018-05-29T07:43:10.703Z,56.21
2018-05-29T07:45:38.115Z,55.29
2018-05-29T07:48:05.492Z,56.03
2018-05-29T07:50:32.888Z,55.60
2018-05-29T07:53:00.274Z,54.79
2018-05-29T07:55:27.659Z,54.33
2018-05-29T07:57:55.042Z,54.53
2018-05-29T08:00:22.435Z,54.84
2018-05-29T08:02:49.834Z,55.21
2018-05-29T08:05:17.290Z,54.74
2018-05-29T08:07:44.669Z,53.58
2018-05-29T08:10:12.081Z,53.86
2018-05-29T08:12:39.795Z,53.29
2018-05-29T08:15:07.191Z,52.85
2018-05-29T08:17:34.580Z,53.10
2018-05-29T08:20:01.991Z,53.10
2018-05-29T08:22:29.374Z,53.17
2018-05-29T08:24:58.725Z,53.34
2018-05-29T08:27:26.679Z,53.33
2018-05-29T08:29:54.242Z,52.88
2018-05-29T08:32:21.628Z,53.18
2018-05-29T08:34:49.019Z,52.80
2018-05-29T08:37:16.443Z,53.33
2018-05-29T08:39:43.892Z,52.35
2018-05-29T08:42:11.226Z,51.57
2018-05-29T08:44:38.611Z,52.19
2018-05-29T08:47:06.008Z,52.43
2018-05-29T08:49:33.396Z,52.75
2018-05-29T08:52:00.791Z,52.85
2018-05-29T08:54:29.184Z,52.28
2018-05-29T08:56:56.816Z,53.18
2018-05-29T08:59:24.215Z,52.71
2018-05-29T09:01:51.598Z,51.56
2018-05-29T09:04:19.118Z,51.04
2018-05-29T09:06:46.393Z,52.17
2018-05-29T09:09:13.786Z,51.98
2018-05-29T09:11:41.183Z,51.99
2018-05-29T09:14:08.560Z,51.28
2018-05-29T09:16:35.963Z,51.45
2018-05-29T09:19:03.358Z,50.89
2018-05-29T09:21:30.761Z,49.79
2018-05-29T09:23:58.126Z,49.80
2018-05-29T09:26:25.521Z,50.15
2018-05-29T09:28:52.995Z,50.05
2018-05-29T09:31:20.390Z,49.95
2018-05-29T09:33:47.771Z,49.57
2018-05-29T09:36:15.173Z,49.53
2018-05-29T09:38:42.559Z,49.09
2018-05-29T09:41:09.957Z,49.95
2018-05-29T09:43:37.339Z,49.68
2018-05-29T09:46:04.901Z,50.28
2018-05-29T09:48:32.282Z,50.86
2018-05-29T09:50:59.780Z,49.95
2018-05-29T09:53:27.165Z,49.89
2018-05-29T09:55:55.231Z,49.84
2018-05-29T09:58:22.625Z,50.54
2018-05-29T10:00:49.997Z,50.53
2018-05-29T10:03:17.426Z,49.84
2018-05-29T10:05:44.797Z,51.10
2018-05-29T10:08:12.199Z,51.07
2018-05-29T10:10:39.570Z,50.64
2018-05-29T10:13:06.973Z,50.53
2018-05-29T10:15:34.359Z,50.12
2018-05-29T10:18:01.755Z,50.27
2018-05-29T10:20:29.136Z,51.78
2018-05-29T10:22:57.237Z,51.71
2018-05-29T10:25:24.619Z,50.79
2018-05-29T10:27:52.499Z,49.87
2018-05-29T10:30:19.891Z,49.96
2018-05-29T10:32:47.293Z,50.32
2018-05-29T10:35:14.680Z,51.18
2018-05-29T10:37:42.059Z,49.30
2018-05-29T10:40:09.453Z,49.82
2018-05-29T10:42:36.849Z,49.27
2018-05-29T10:45:04.235Z,50.72
2018-05-29T10:47:31.671Z,50.58
2018-05-29T10:49:59.076Z,51.63
2018-05-29T10:52:27.409Z,49.84
2018-05-29T10:54:54.752Z,50.43
2018-05-29T10:57:22.143Z,50.32
2018-05-29T10:59:49.533Z,50.53
2018-05-29T11:02:16.920Z,50.51
2018-05-29T11:04:44.363Z,50.58
2018-05-29T11:07:11.794Z,51.81
2018-05-29T11:09:39.184Z,51.09
2018-05-29T11:12:06.594Z,51.37
2018-05-29T11:14:33.969Z,50.62
2018-05-29T11:17:01.373Z,51.40
2018-05-29T11:19:28.756Z,51.62
2018-05-29T11:24:25.152Z,52.23
2018-05-29T11:26:52.658Z,51.94
2018-05-29T11:29:20.057Z,49.95
2018-05-29T11:31:47.478Z,48.67
2018-05-29T11:34:14.866Z,47.54
2018-05-29T11:36:42.265Z,47.14
2018-05-29T11:39:09.987Z,46.12
2018-05-29T11:41:37.372Z,45.67
2018-05-29T11:44:04.890Z,44.67
2018-05-29T11:46:32.281Z,46.24
2018-05-29T11:48:59.672Z,48.07
2018-05-29T11:51:27.715Z,47.67
2018-05-29T11:53:55.115Z,46.85
2018-05-29T11:56:22.499Z,45.52
2018-05-29T11:58:49.898Z,45.16
2018-05-29T12:01:17.282Z,45.86
2018-05-29T12:03:44.675Z,44.94
2018-05-29T12:06:12.059Z,44.41
2018-05-29T12:08:39.452Z,45.39
2018-05-29T12:11:06.851Z,44.83
2018-05-29T12:13:34.237Z,44.72
2018-05-29T12:16:01.629Z,43.07
2018-05-29T12:18:29.025Z,44.39
2018-05-29T12:20:56.411Z,45.99
2018-05-29T12:23:23.799Z,44.76
2018-05-29T12:25:51.183Z,41.93
2018-05-29T12:28:19.601Z,41.51
2018-05-29T12:30:46.959Z,41.18
2018-05-29T12:33:14.340Z,42.74
2018-05-29T12:35:41.727Z,43.39
2018-05-29T12:38:09.102Z,41.64
2018-05-29T12:40:36.489Z,42.27
2018-05-29T12:43:03.879Z,41.37
2018-05-29T12:45:31.275Z,40.00
2018-05-29T12:47:58.669Z,40.60
2018-05-29T12:50:26.065Z,45.08
2018-05-29T12:52:53.437Z,45.66
2018-05-29T12:55:20.831Z,45.94
2018-05-29T12:57:48.261Z,45.83
2018-05-29T13:00:15.677Z,44.80
2018-05-29T13:02:43.051Z,44.07
2018-05-29T13:05:10.451Z,45.63
2018-05-29T13:07:37.830Z,45.46
2018-05-29T13:10:05.231Z,47.04
2018-05-29T13:12:32.614Z,46.24
2018-05-29T13:15:00.008Z,47.50
2018-05-29T13:17:27.949Z,48.71
2018-05-29T13:19:55.358Z,48.72
2018-05-29T13:22:22.731Z,44.78
2018-05-29T13:24:50.128Z,42.80
2018-05-29T13:27:17.516Z,42.85
2018-05-29T13:29:44.921Z,42.16
2018-05-29T13:32:12.286Z,42.52
2018-05-29T13:34:39.687Z,43.04
2018-05-29T13:37:07.074Z,44.60
2018-05-29T13:39:34.459Z,43.18
2018-05-29T13:42:01.844Z,44.82
2018-05-29T13:44:29.344Z,42.71
2018-05-29T13:46:56.732Z,43.01
2018-05-29T13:49:24.106Z,41.31
2018-05-29T13:51:51.488Z,42.25
2018-05-29T13:54:18.873Z,41.12
2018-05-29T13:56:46.257Z,40.46
2018-05-29T13:59:13.630Z,40.16
2018-05-29T14:01:41.010Z,42.84
2018-05-29T14:04:08.386Z,41.95
2018-05-29T14:06:35.777Z,41.59
2018-05-29T14:09:03.242Z,40.38
2018-05-29T14:11:30.595Z,43.07
2018-05-29T14:13:58.253Z,41.17
2018-05-29T14:16:25.643Z,36.78
2018-05-29T14:18:53.371Z,39.40
2018-05-29T14:21:20.769Z,40.75
2018-05-29T14:23:48.164Z,39.40
2018-05-29T14:26:15.548Z,39.54
2018-05-29T14:28:42.915Z,42.07
2018-05-29T14:31:10.312Z,40.65
2018-05-29T14:33:37.679Z,40.85
2018-05-29T14:36:05.064Z,39.06
2018-05-29T14:38:32.489Z,39.07
2018-05-29T14:40:59.826Z,37.48
2018-05-29T14:43:27.196Z,39.73
2018-05-29T14:45:54.589Z,42.83
2018-05-29T14:48:21.958Z,44.37
2018-05-29T14:50:49.327Z,45.25
2018-05-29T14:53:16.707Z,46.79
2018-05-29T14:55:44.100Z,44.57
2018-05-29T14:58:11.492Z,46.24
2018-05-29T15:00:38.875Z,45.37
2018-05-29T15:03:06.258Z,47.28
2018-05-29T15:05:33.635Z,45.30
2018-05-29T15:08:01.024Z,47.35
2018-05-29T15:10:28.911Z,47.53
2018-05-29T15:12:56.303Z,46.55
2018-05-29T15:15:23.703Z,46.61
2018-05-29T15:17:52.207Z,47.49
2018-05-29T15:20:19.577Z,48.25
2018-05-29T15:22:46.958Z,48.69
2018-05-29T15:25:14.337Z,49.00
2018-05-29T15:27:41.759Z,47.92
2018-05-29T15:30:09.135Z,47.58
2018-05-29T15:32:36.523Z,49.78
2018-05-29T15:35:03.899Z,48.75
2018-05-29T15:37:31.323Z,48.77
2018-05-29T15:39:58.683Z,49.60
2018-05-29T15:42:26.067Z,49.87
2018-05-29T15:44:53.435Z,49.50
2018-05-29T15:47:20.826Z,49.78
2018-05-29T15:49:48.207Z,50.08
2018-05-29T15:52:15.653Z,50.56
2018-05-29T15:54:42.962Z,49.20
2018-05-29T15:57:10.350Z,47.98
2018-05-29T15:59:37.740Z,47.42
2018-05-29T16:02:05.431Z,48.52
2018-05-29T16:04:32.829Z,47.94
2018-05-29T16:07:00.235Z,48.07
2018-05-29T16:09:27.626Z,46.53
2018-05-29T16:11:55.014Z,45.44
2018-05-29T16:14:22.473Z,47.48
2018-05-29T16:16:49.807Z,47.65
2018-05-29T16:19:17.199Z,47.19
2018-05-29T16:21:44.587Z,47.68
2018-05-29T16:24:11.970Z,48.40
2018-05-29T16:26:39.424Z,48.51
2018-05-29T16:29:06.753Z,47.77
2018-05-29T16:31:34.127Z,47.91
2018-05-29T16:34:01.505Z,48.77
2018-05-29T16:36:28.904Z,48.90
2018-05-29T16:38:56.321Z,48.23
2018-05-29T16:41:23.701Z,49.74
2018-05-29T16:43:51.091Z,50.89
2018-05-29T16:46:18.468Z,51.08
2018-05-29T16:48:45.875Z,50.35
2018-05-29T16:51:13.269Z,50.32
2018-05-29T16:53:40.648Z,49.64
2018-05-29T16:56:08.055Z,50.19
2018-05-29T16:58:35.413Z,50.72
2018-05-29T17:01:02.840Z,51.58
2018-05-29T17:03:30.214Z,53.89
2018-05-29T17:05:57.604Z,51.45
2018-05-29T17:08:24.992Z,50.81
2018-05-29T17:10:52.383Z,51.10
2018-05-29T17:13:19.770Z,52.34
2018-05-29T17:15:47.233Z,51.99
2018-05-29T17:18:14.615Z,54.02
2018-05-29T17:20:42.002Z,53.48
2018-05-29T17:23:09.391Z,53.51
2018-05-29T17:25:36.770Z,54.06
2018-05-29T17:28:04.159Z,54.48
2018-05-29T17:30:31.543Z,53.08
2018-05-29T17:32:59.203Z,54.15
2018-05-29T17:35:26.891Z,54.51
2018-05-29T17:37:54.281Z,55.51
2018-05-29T17:40:21.682Z,55.14
2018-05-29T17:42:49.054Z,54.10
2018-05-29T17:45:16.450Z,54.36
2018-05-29T17:47:43.831Z,54.91
2018-05-29T17:50:11.207Z,54.20
2018-05-29T17:52:39.502Z,54.02
2018-05-29T17:55:06.896Z,55.69
2018-05-29T17:57:34.282Z,56.17
2018-05-29T18:00:01.666Z,55.42
2018-05-29T18:02:29.257Z,56.21
2018-05-29T18:04:56.632Z,55.33
2018-05-29T18:07:24.174Z,55.92
2018-05-29T18:09:51.546Z,55.85
2018-05-29T18:12:18.940Z,54.82
2018-05-29T18:14:46.374Z,54.94
2018-05-29T18:17:13.752Z,55.65
2018-05-29T18:19:41.137Z,55.96
2018-05-29T18:22:08.556Z,54.96
2018-05-29T18:24:35.912Z,55.74
2018-05-29T18:27:03.295Z,54.37
2018-05-29T18:29:30.664Z,54.48
2018-05-29T18:31:58.183Z,55.45
2018-05-29T18:34:25.560Z,55.71
2018-05-29T18:36:52.956Z,56.09
2018-05-29T18:39:20.340Z,56.58
2018-05-29T18:41:47.724Z,56.82
2018-05-29T18:44:15.102Z,57.22
2018-05-29T18:46:42.495Z,57.68
2018-05-29T18:49:09.953Z,58.00
2018-05-29T18:51:37.302Z,57.31
2018-05-29T18:54:04.696Z,58.07
2018-05-29T18:56:32.073Z,57.74
2018-05-29T18:58:59.464Z,58.36
2018-05-29T19:01:26.851Z,57.31
2018-05-29T19:03:54.258Z,57.44
2018-05-29T19:06:21.660Z,56.64
2018-05-29T19:08:49.043Z,57.66
2018-05-29T19:11:16.446Z,57.91
2018-05-29T19:13:43.846Z,58.06
2018-05-29T19:16:11.571Z,58.64
2018-05-29T19:18:38.986Z,58.51
2018-05-29T19:21:06.363Z,58.44
2018-05-29T19:23:33.765Z,59.12
2018-05-29T19:26:01.143Z,58.24
2018-05-29T19:28:29.578Z,57.23
2018-05-29T19:30:57.061Z,58.07
2018-05-29T19:33:24.433Z,58.01
2018-05-29T19:35:51.798Z,57.79
2018-05-29T19:38:19.186Z,56.77
2018-05-29T19:40:46.586Z,56.43
2018-05-29T19:43:14.031Z,55.83
2018-05-29T19:45:41.425Z,55.98
2018-05-29T19:48:08.814Z,57.53
2018-05-29T19:50:36.251Z,57.70
2018-05-29T19:53:03.983Z,58.11
2018-05-29T19:55:31.373Z,57.73
2018-05-29T19:57:59.716Z,58.08
2018-05-29T20:00:27.776Z,57.97
2018-05-29T20:02:55.199Z,57.65
2018-05-29T20:05:22.584Z,58.25
2018-05-29T20:07:49.976Z,57.87
2018-05-29T20:10:17.355Z,58.34
2018-05-29T20:12:44.757Z,58.35
2018-05-29T20:15:12.131Z,58.83
2018-05-29T20:17:39.519Z,58.99
2018-05-29T20:20:06.943Z,58.64
2018-05-29T20:22:34.302Z,58.56
2018-05-29T20:25:01.679Z,58.30
2018-05-29T20:27:30.515Z,58.35
2018-05-29T20:29:57.913Z,58.26
2018-05-29T20:32:25.294Z,59.23
2018-05-29T20:34:52.675Z,59.12
2018-05-29T20:37:20.072Z,59.09
2018-05-29T20:39:47.471Z,59.49
2018-05-29T20:42:14.852Z,59.12
2018-05-29T20:44:42.237Z,58.97
2018-05-29T20:47:09.630Z,58.90
2018-05-29T20:49:37.024Z,59.55
2018-05-29T20:52:04.403Z,59.25
2018-05-29T20:54:31.789Z,60.17
2018-05-29T20:56:59.965Z,60.37
2018-05-29T20:59:27.356Z,59.99
2018-05-29T21:01:55.484Z,60.33
2018-05-29T21:04:22.875Z,60.31
2018-05-29T21:06:50.253Z,60.15
2018-05-29T21:09:17.637Z,59.36
2018-05-29T21:11:45.034Z,59.61
2018-05-29T21:14:12.420Z,59.95
2018-05-29T21:16:39.801Z,60.88
2018-05-29T21:19:07.183Z,60.60
2018-05-29T21:21:34.902Z,60.82
2018-05-29T21:24:02.292Z,61.06
2018-05-29T21:26:30.227Z,61.66
2018-05-29T21:28:57.605Z,61.61
2018-05-29T21:31:24.983Z,61.28
2018-05-29T21:33:52.393Z,61.22
2018-05-29T21:36:19.773Z,61.39
2018-05-29T21:38:47.154Z,61.16
2018-05-29T21:41:14.543Z,61.37
2018-05-29T21:43:41.923Z,61.10
2018-05-29T21:46:09.307Z,60.88
2018-05-29T21:48:36.705Z,61.69
2018-05-29T21:51:04.066Z,62.14
2018-05-29T21:53:31.506Z,62.62
2018-05-29T21:55:58.830Z,62.34
2018-05-29T21:58:26.217Z,62.61
2018-05-29T22:00:53.619Z,62.51
2018-05-29T22:03:21.004Z,62.61
2018-05-29T22:05:48.384Z,62.86
2018-05-29T22:08:15.762Z,63.01
2018-05-29T22:10:43.142Z,63.05
2018-05-29T22:13:10.522Z,63.51
2018-05-29T22:15:37.912Z,62.58
2018-05-29T22:18:05.291Z,62.65
2018-05-29T22:20:32.674Z,63.32
2018-05-29T22:23:00.408Z,63.84
2018-05-29T22:25:27.790Z,63.59
2018-05-29T22:27:56.150Z,63.76
2018-05-29T22:30:23.623Z,64.20
2018-05-29T22:32:50.961Z,63.95
2018-05-29T22:35:18.348Z,64.57
2018-05-29T22:37:45.736Z,64.61
2018-05-29T22:40:13.139Z,63.53
2018-05-29T22:42:40.540Z,64.06
2018-05-29T22:45:07.930Z,63.96
2018-05-29T22:47:35.533Z,64.54
2018-05-29T22:50:02.910Z,64.43
2018-05-29T22:52:30.598Z,64.68
2018-05-29T22:54:58.004Z,64.52
2018-05-29T22:57:25.385Z,64.30
2018-05-29T22:59:52.766Z,64.76
2018-05-29T23:02:20.155Z,64.86
2018-05-29T23:04:47.550Z,65.73
2018-05-29T23:07:14.929Z,66.06
2018-05-29T23:09:42.335Z,65.89
2018-05-29T23:12:09.727Z,66.31
2018-05-29T23:14:37.144Z,66.85
2018-05-29T23:17:04.539Z,67.28
2018-05-29T23:19:31.943Z,67.06
2018-05-29T23:21:59.331Z,67.32
2018-05-29T23:24:26.724Z,67.09
2018-05-29T23:26:54.127Z,67.05
2018-05-29T23:29:21.519Z,67.17
2018-05-29T23:31:48.905Z,66.96
2018-05-29T23:34:16.300Z,67.05
2018-05-29T23:36:43.691Z,66.91
2018-05-29T23:39:11.076Z,66.68
2018-05-29T23:41:38.474Z,67.74
2018-05-29T23:44:05.867Z,67.04
2018-05-29T23:46:33.259Z,66.94
2018-05-29T23:49:00.967Z,67.90
2018-05-29T23:51:28.323Z,67.49
2018-05-29T23:53:55.725Z,67.44
2018-05-29T23:56:23.105Z,67.56
2018-05-29T23:58:50.724Z,67.66
